createdAt,value
2023-04-26T00:00:10.044Z,97456.00
2023-04-26T00:02:38.444Z,97444.00
2023-04-26T00:05:09.491Z,97435.00
2023-04-26T00:07:39.266Z,97445.00
2023-04-26T00:10:08.822Z,97457.00
2023-04-26T00:12:37.665Z,97429.00
2023-04-26T00:15:07.481Z,97441.00
2023-04-26T00:17:36.039Z,97443.00
2023-04-26T00:20:07.043Z,97443.00
2023-04-26T00:22:35.253Z,97438.00
2023-04-26T00:25:05.267Z,97443.00
2023-04-26T00:27:33.459Z,97449.00
2023-04-26T00:30:01.928Z,97446.00
2023-04-26T00:32:31.241Z,97448.00
2023-04-26T00:34:59.956Z,97447.00
2023-04-26T00:37:28.334Z,97458.00
2023-04-26T00:39:57.355Z,97448.00
2023-04-26T00:42:28.796Z,97442.00
2023-04-26T00:44:57.621Z,97443.00
2023-04-26T00:47:26.815Z,97440.00
2023-04-26T00:49:55.105Z,97448.00
2023-04-26T00:52:24.988Z,97448.00
2023-04-26T00:54:54.785Z,97458.00
2023-04-26T00:57:23.485Z,97466.00
2023-04-26T00:59:53.025Z,97455.00
2023-04-26T01:02:21.574Z,97460.00
2023-04-26T01:04:50.481Z,97445.00
2023-04-26T01:07:19.029Z,97445.00
2023-04-26T01:09:49.764Z,97450.00
2023-04-26T01:12:18.268Z,97458.00
2023-04-26T01:14:47.666Z,97460.00
2023-04-26T01:17:20.029Z,97463.00
2023-04-26T01:19:49.259Z,97449.00
2023-04-26T01:22:17.816Z,97467.00
2023-04-26T01:24:52.185Z,97454.00
2023-04-26T01:27:22.037Z,97460.00
2023-04-26T01:29:50.244Z,97459.00
2023-04-26T01:32:18.416Z,97460.00
2023-04-26T01:34:46.622Z,97464.00
2023-04-26T01:37:14.977Z,97476.00
2023-04-26T01:39:43.418Z,97461.00
2023-04-26T01:42:13.092Z,97477.00
2023-04-26T01:44:41.311Z,97471.00
2023-04-26T01:47:09.746Z,97483.00
2023-04-26T01:49:37.961Z,97471.00
2023-04-26T01:52:06.394Z,97469.00
2023-04-26T01:54:34.684Z,97480.00
2023-04-26T01:57:03.767Z,97494.00
2023-04-26T01:59:33.306Z,97480.00
2023-04-26T02:02:01.721Z,97474.00
2023-04-26T02:04:30.337Z,97476.00
2023-04-26T02:06:58.568Z,97485.00
2023-04-26T02:09:26.776Z,97473.00
2023-04-26T02:11:54.886Z,97480.00
2023-04-26T02:14:26.678Z,97467.00
2023-04-26T02:16:57.052Z,97488.00
2023-04-26T02:19:25.802Z,97480.00
2023-04-26T02:21:58.452Z,97477.00
2023-04-26T02:24:27.227Z,97478.00
2023-04-26T02:26:56.439Z,97476.00
2023-04-26T02:29:36.342Z,97493.00
2023-04-26T02:32:12.459Z,97484.00
2023-04-26T02:34:40.695Z,97483.00
2023-04-26T02:37:08.999Z,97482.00
2023-04-26T02:39:37.343Z,97477.00
2023-04-26T02:42:05.997Z,97478.00
2023-04-26T02:44:37.428Z,97477.00
2023-04-26T02:47:06.022Z,97477.00
2023-04-26T02:49:35.668Z,97466.00
2023-04-26T02:52:04.033Z,97471.00
2023-04-26T02:54:33.165Z,97476.00
2023-04-26T02:57:01.320Z,97478.00
2023-04-26T02:59:29.543Z,97471.00
2023-04-26T03:01:57.770Z,97471.00
2023-04-26T03:04:26.034Z,97472.00
2023-04-26T03:06:55.647Z,97472.00
2023-04-26T03:09:23.845Z,97484.00
2023-04-26T03:11:53.477Z,97481.00
2023-04-26T03:14:22.585Z,97487.00
2023-04-26T03:16:51.422Z,97483.00
2023-04-26T03:19:19.803Z,97481.00
2023-04-26T03:21:49.004Z,97474.00
2023-04-26T03:24:18.672Z,97490.00
2023-04-26T03:26:47.233Z,97489.00
2023-04-26T03:29:16.202Z,97477.00
2023-04-26T03:31:44.470Z,97490.00
2023-04-26T03:34:12.632Z,97487.00
2023-04-26T03:36:41.038Z,97498.00
2023-04-26T03:39:09.738Z,97491.00
2023-04-26T03:41:40.428Z,97489.00
2023-04-26T03:44:10.595Z,97495.00
2023-04-26T03:46:40.668Z,97485.00
2023-04-26T03:49:08.955Z,97501.00
2023-04-26T03:51:37.294Z,97503.00
2023-04-26T03:54:06.184Z,97495.00
2023-04-26T03:56:34.411Z,97511.00
2023-04-26T03:59:04.128Z,97503.00
2023-04-26T04:01:33.033Z,97500.00
2023-04-26T04:04:01.964Z,97515.00
2023-04-26T04:06:31.123Z,97519.00
2023-04-26T04:08:59.397Z,97496.00
2023-04-26T04:11:28.550Z,97511.00
2023-04-26T04:13:57.616Z,97509.00
2023-04-26T04:16:27.252Z,97498.00
2023-04-26T04:18:58.153Z,97503.00
2023-04-26T04:21:27.632Z,97500.00
2023-04-26T04:23:56.253Z,97504.00
2023-04-26T04:26:24.704Z,97504.00
2023-04-26T04:28:53.637Z,97513.00
2023-04-26T04:31:22.843Z,97509.00
2023-04-26T04:33:52.502Z,97522.00
2023-04-26T04:36:21.293Z,97523.00
2023-04-26T04:38:49.554Z,97517.00
2023-04-26T04:41:20.309Z,97527.00
2023-04-26T04:43:48.467Z,97529.00
2023-04-26T04:46:16.954Z,97528.00
2023-04-26T04:48:45.346Z,97530.00
2023-04-26T04:51:14.890Z,97528.00
2023-04-26T04:53:43.643Z,97533.00
2023-04-26T04:56:11.944Z,97535.00
2023-04-26T04:58:40.375Z,97541.00
2023-04-26T05:01:09.991Z,97544.00
2023-04-26T05:03:47.664Z,97531.00
2023-04-26T05:06:17.281Z,97536.00
2023-04-26T05:08:45.467Z,97543.00
2023-04-26T05:11:13.612Z,97539.00
2023-04-26T05:13:42.791Z,97540.00
2023-04-26T05:16:11.563Z,97546.00
2023-04-26T05:18:40.161Z,97538.00
2023-04-26T05:21:08.442Z,97547.00
2023-04-26T05:23:38.448Z,97565.00
2023-04-26T05:26:07.380Z,97551.00
2023-04-26T05:28:54.592Z,97561.00
2023-04-26T05:31:22.907Z,97562.00
2023-04-26T05:34:01.874Z,97569.00
2023-04-26T05:36:33.740Z,97563.00
2023-04-26T05:39:05.684Z,97575.00
2023-04-26T05:41:34.008Z,97590.00
2023-04-26T05:44:02.293Z,97569.00
2023-04-26T05:46:30.711Z,97578.00
2023-04-26T05:48:58.988Z,97596.00
2023-04-26T05:51:28.011Z,97572.00
2023-04-26T05:53:57.230Z,97581.00
2023-04-26T05:56:29.364Z,97589.00
2023-04-26T05:58:58.675Z,97589.00
2023-04-26T06:01:27.732Z,97588.00
2023-04-26T06:03:59.747Z,97585.00
2023-04-26T06:06:33.431Z,97587.00
2023-04-26T06:09:01.687Z,97587.00
2023-04-26T06:11:32.034Z,97588.00
2023-04-26T06:14:00.228Z,97597.00
2023-04-26T06:16:28.563Z,97595.00
2023-04-26T06:18:56.811Z,97588.00
2023-04-26T06:21:24.928Z,97595.00
2023-04-26T06:23:53.409Z,97587.00
2023-04-26T06:26:23.784Z,97601.00
2023-04-26T06:28:53.342Z,97594.00
2023-04-26T06:31:22.799Z,97601.00
2023-04-26T06:33:51.812Z,97582.00
2023-04-26T06:36:20.141Z,97610.00
2023-04-26T06:38:48.714Z,97586.00
2023-04-26T06:41:18.270Z,97589.00
2023-04-26T06:43:49.818Z,97595.00
2023-04-26T06:46:23.724Z,97608.00
2023-04-26T06:48:56.078Z,97593.00
2023-04-26T06:51:26.938Z,97589.00
2023-04-26T06:53:55.336Z,97597.00
2023-04-26T06:56:23.693Z,97591.00
2023-04-26T06:59:03.210Z,97594.00
2023-04-26T07:01:34.444Z,97598.00
2023-04-26T07:04:04.293Z,97602.00
2023-04-26T07:06:32.817Z,97606.00
2023-04-26T07:09:02.600Z,97602.00
2023-04-26T07:11:30.929Z,97603.00
2023-04-26T07:13:59.428Z,97614.00
2023-04-26T07:16:28.546Z,97597.00
2023-04-26T07:18:58.808Z,97599.00
2023-04-26T07:21:27.653Z,97600.00
2023-04-26T07:23:58.178Z,97604.00
2023-04-26T07:26:27.420Z,97604.00
2023-04-26T07:28:55.800Z,97596.00
2023-04-26T07:31:24.025Z,97593.00
2023-04-26T07:33:52.622Z,97606.00
2023-04-26T07:36:23.857Z,97597.00
2023-04-26T07:38:53.273Z,97602.00
2023-04-26T07:41:21.448Z,97599.00
2023-04-26T07:43:49.615Z,97608.00
2023-04-26T07:46:17.895Z,97596.00
2023-04-26T07:48:46.242Z,97598.00
2023-04-26T07:51:15.164Z,97601.00
2023-04-26T07:53:44.927Z,97604.00
2023-04-26T07:56:13.250Z,97600.00
2023-04-26T07:58:41.699Z,97606.00
2023-04-26T08:01:11.718Z,97599.00
2023-04-26T08:03:40.243Z,97599.00
2023-04-26T08:06:09.780Z,97600.00
2023-04-26T08:08:42.825Z,97597.00
2023-04-26T08:11:12.485Z,97603.00
2023-04-26T08:13:40.700Z,97588.00
2023-04-26T08:16:09.111Z,97603.00
2023-04-26T08:18:37.292Z,97600.00
2023-04-26T08:21:05.465Z,97601.00
2023-04-26T08:23:36.783Z,97600.00
2023-04-26T08:26:05.117Z,97611.00
2023-04-26T08:28:35.690Z,97608.00
2023-04-26T08:31:04.374Z,97600.00
2023-04-26T08:33:32.632Z,97609.00
2023-04-26T08:36:01.775Z,97590.00
2023-04-26T08:38:30.834Z,97615.00
2023-04-26T08:41:02.749Z,97608.00
2023-04-26T08:43:31.464Z,97611.00
2023-04-26T08:46:02.348Z,97618.00
2023-04-26T08:48:37.355Z,97613.00
2023-04-26T08:51:08.329Z,97612.00
2023-04-26T08:53:38.643Z,97607.00
2023-04-26T08:56:09.257Z,97607.00
2023-04-26T08:58:38.959Z,97607.00
2023-04-26T09:01:11.137Z,97620.00
2023-04-26T09:03:39.624Z,97618.00
2023-04-26T09:06:09.102Z,97608.00
2023-04-26T09:08:42.792Z,97618.00
2023-04-26T09:11:10.947Z,97618.00
2023-04-26T09:13:39.176Z,97618.00
2023-04-26T09:16:09.938Z,97613.00
2023-04-26T09:18:50.823Z,97607.00
2023-04-26T09:21:20.200Z,97598.00
2023-04-26T09:24:04.398Z,97604.00
2023-04-26T09:26:32.594Z,97599.00
2023-04-26T09:29:18.472Z,97600.00
2023-04-26T09:31:50.697Z,97603.00
2023-04-26T09:34:18.975Z,97609.00
2023-04-26T09:36:52.117Z,97593.00
2023-04-26T09:39:41.300Z,97609.00
2023-04-26T09:42:11.140Z,97612.00
2023-04-26T09:44:39.745Z,97598.00
2023-04-26T09:47:11.647Z,97602.00
2023-04-26T09:49:50.511Z,97605.00
2023-04-26T09:52:20.503Z,97593.00
2023-04-26T09:54:51.666Z,97591.00
2023-04-26T09:57:22.210Z,97589.00
2023-04-26T09:59:55.013Z,97587.00
2023-04-26T10:02:28.059Z,97592.00
2023-04-26T10:05:00.020Z,97587.00
2023-04-26T10:07:28.516Z,97597.00
2023-04-26T10:09:59.292Z,97593.00
2023-04-26T10:12:28.041Z,97577.00
2023-04-26T10:14:57.805Z,97587.00
2023-04-26T10:17:27.499Z,97576.00
2023-04-26T10:20:01.753Z,97580.00
2023-04-26T10:22:36.992Z,97580.00
2023-04-26T10:25:09.018Z,97584.00
2023-04-26T10:27:52.995Z,97576.00
2023-04-26T10:30:24.243Z,97582.00
2023-04-26T10:33:18.494Z,97577.00
2023-04-26T10:36:09.064Z,97580.00
2023-04-26T10:38:40.367Z,97584.00
2023-04-26T10:41:35.998Z,97565.00
2023-04-26T10:44:41.110Z,97580.00
2023-04-26T10:47:28.218Z,97571.00
2023-04-26T10:50:07.514Z,97565.00
2023-04-26T10:52:36.846Z,97554.00
2023-04-26T10:55:06.765Z,97565.00
2023-04-26T10:57:52.839Z,97561.00
2023-04-26T11:00:32.904Z,97566.00
2023-04-26T11:03:12.706Z,97562.00
2023-04-26T11:05:54.252Z,97554.00
2023-04-26T11:08:28.157Z,97553.00
2023-04-26T11:11:08.911Z,97564.00
2023-04-26T11:13:39.700Z,97565.00
2023-04-26T11:16:09.698Z,97550.00
2023-04-26T11:18:39.971Z,97555.00
2023-04-26T11:21:10.817Z,97550.00
2023-04-26T11:23:39.164Z,97550.00
2023-04-26T11:26:09.577Z,97556.00
2023-04-26T11:28:39.507Z,97550.00
2023-04-26T11:31:11.649Z,97539.00
2023-04-26T11:33:42.252Z,97545.00
2023-04-26T11:36:12.979Z,97538.00
2023-04-26T11:38:41.266Z,97544.00
2023-04-26T11:41:10.421Z,97537.00
2023-04-26T11:43:40.438Z,97539.00
2023-04-26T11:46:10.379Z,97547.00
2023-04-26T11:48:40.903Z,97536.00
2023-04-26T11:51:11.900Z,97549.00
2023-04-26T11:53:42.964Z,97532.00
2023-04-26T11:56:18.031Z,97538.00
2023-04-26T11:58:48.405Z,97533.00
2023-04-26T12:01:23.548Z,97533.00
2023-04-26T12:03:54.605Z,97540.00
2023-04-26T12:06:32.812Z,97541.00
2023-04-26T12:09:05.397Z,97538.00
2023-04-26T12:11:33.626Z,97536.00
2023-04-26T12:14:02.190Z,97536.00
2023-04-26T12:16:30.611Z,97525.00
2023-04-26T12:18:59.102Z,97535.00
2023-04-26T12:21:30.870Z,97530.00
2023-04-26T12:23:59.398Z,97531.00
2023-04-26T12:26:45.238Z,97528.00
2023-04-26T12:29:13.490Z,97526.00
2023-04-26T12:31:41.932Z,97533.00
2023-04-26T12:34:10.400Z,97511.00
2023-04-26T12:36:43.188Z,97528.00
2023-04-26T12:39:13.281Z,97526.00
2023-04-26T12:41:41.797Z,97515.00
2023-04-26T12:44:10.603Z,97514.00
2023-04-26T12:46:39.512Z,97522.00
2023-04-26T12:49:07.864Z,97515.00
2023-04-26T12:51:36.077Z,97526.00
2023-04-26T12:54:05.868Z,97522.00
2023-04-26T12:56:35.292Z,97502.00
2023-04-26T12:59:03.469Z,97515.00
2023-04-26T13:01:31.768Z,97498.00
2023-04-26T13:04:00.887Z,97505.00
2023-04-26T13:06:29.404Z,97497.00
2023-04-26T13:08:57.652Z,97501.00
2023-04-26T13:11:27.303Z,97491.00
2023-04-26T13:13:55.441Z,97499.00
2023-04-26T13:16:23.786Z,97505.00
2023-04-26T13:18:52.137Z,97494.00
2023-04-26T13:21:20.343Z,97491.00
2023-04-26T13:23:48.553Z,97493.00
2023-04-26T13:26:18.042Z,97493.00
2023-04-26T13:28:48.288Z,97486.00
2023-04-26T13:31:17.420Z,97494.00
2023-04-26T13:33:47.242Z,97485.00
2023-04-26T13:36:15.892Z,97491.00
2023-04-26T13:38:45.874Z,97494.00
2023-04-26T13:41:14.342Z,97492.00
2023-04-26T13:43:42.576Z,97492.00
2023-04-26T13:46:12.107Z,97495.00
2023-04-26T13:48:40.981Z,97492.00
2023-04-26T13:51:09.187Z,97495.00
2023-04-26T13:53:37.424Z,97493.00
2023-04-26T13:56:06.685Z,97504.00
2023-04-26T13:58:34.920Z,97495.00
2023-04-26T14:01:04.332Z,97515.00
2023-04-26T14:03:34.794Z,97498.00
2023-04-26T14:06:03.896Z,97500.00
2023-04-26T14:08:32.285Z,97516.00
2023-04-26T14:11:00.798Z,97502.00
2023-04-26T14:13:29.019Z,97509.00
2023-04-26T14:15:57.238Z,97513.00
2023-04-26T14:18:25.430Z,97517.00
2023-04-26T14:57:24.482Z,97483.00
2023-04-26T14:59:52.638Z,97481.00
2023-04-26T15:02:21.178Z,97470.00
2023-04-26T15:04:49.729Z,97481.00
2023-04-26T15:07:31.405Z,97472.00
2023-04-26T15:10:00.566Z,97485.00
2023-04-26T15:12:30.057Z,97475.00
2023-04-26T15:14:58.335Z,97482.00
2023-04-26T15:17:27.220Z,97478.00
2023-04-26T15:19:56.324Z,97487.00
2023-04-26T15:22:24.527Z,97491.00
2023-04-26T15:24:52.697Z,97483.00
2023-04-26T15:27:21.098Z,97494.00
2023-04-26T15:29:50.849Z,97498.00
2023-04-26T15:32:20.673Z,97483.00
2023-04-26T15:34:48.804Z,97490.00
2023-04-26T15:37:17.153Z,97482.00
2023-04-26T15:39:45.439Z,97486.00
2023-04-26T15:42:13.677Z,97494.00
2023-04-26T15:44:41.958Z,97480.00
2023-04-26T15:47:11.460Z,97487.00
2023-04-26T15:49:39.649Z,97496.00
2023-04-26T15:52:07.829Z,97479.00
2023-04-26T15:54:36.140Z,97489.00
2023-04-26T15:57:04.550Z,97495.00
2023-04-26T15:59:33.642Z,97498.00
2023-04-26T16:02:01.863Z,97494.00
2023-04-26T16:04:32.178Z,97483.00
2023-04-26T16:07:00.519Z,97475.00
2023-04-26T16:09:29.346Z,97474.00
2023-04-26T16:11:57.510Z,97477.00
2023-04-26T16:14:27.511Z,97478.00
2023-04-26T16:16:55.909Z,97479.00
2023-04-26T16:19:26.701Z,97475.00
2023-04-26T16:21:56.327Z,97485.00
2023-04-26T16:24:24.572Z,97466.00
2023-04-26T16:26:53.047Z,97469.00
2023-04-26T16:29:21.307Z,97483.00
2023-04-26T16:31:49.500Z,97471.00
2023-04-26T16:34:17.776Z,97477.00
2023-04-26T16:36:46.514Z,97475.00
2023-04-26T16:39:17.071Z,97468.00
2023-04-26T16:41:45.518Z,97462.00
2023-04-26T16:44:13.726Z,97480.00
2023-04-26T16:46:42.055Z,97472.00
2023-04-26T16:49:10.792Z,97464.00
2023-04-26T16:51:39.064Z,97472.00
2023-04-26T16:54:09.315Z,97471.00
2023-04-26T16:56:38.900Z,97462.00
2023-04-26T16:59:07.085Z,97472.00
2023-04-26T17:01:35.698Z,97460.00
2023-04-26T17:04:04.284Z,97454.00
2023-04-26T17:06:33.074Z,97464.00
2023-04-26T17:09:01.735Z,97470.00
2023-04-26T17:11:30.070Z,97475.00
2023-04-26T17:13:59.596Z,97464.00
2023-04-26T17:16:28.977Z,97462.00
2023-04-26T17:18:58.385Z,97469.00
2023-04-26T17:21:26.749Z,97486.00
2023-04-26T17:23:55.381Z,97472.00
2023-04-26T17:26:23.508Z,97473.00
2023-04-26T17:28:52.769Z,97486.00
2023-04-26T17:31:22.381Z,97486.00
2023-04-26T17:33:50.741Z,97481.00
2023-04-26T17:36:19.352Z,97483.00
2023-04-26T17:38:48.420Z,97477.00
2023-04-26T17:41:17.562Z,97475.00
2023-04-26T17:43:45.925Z,97487.00
2023-04-26T17:46:14.482Z,97485.00
2023-04-26T17:48:44.054Z,97485.00
2023-04-26T17:51:12.324Z,97494.00
2023-04-26T17:53:40.521Z,97490.00
2023-04-26T17:56:09.902Z,97485.00
2023-04-26T17:58:38.196Z,97497.00
2023-04-26T18:01:06.649Z,97495.00
2023-04-26T18:03:35.743Z,97499.00
2023-04-26T18:06:06.147Z,97513.00
2023-04-26T18:08:34.710Z,97518.00
2023-04-26T18:11:02.916Z,97512.00
2023-04-26T18:13:31.403Z,97514.00
2023-04-26T18:15:59.609Z,97505.00
2023-04-26T18:18:28.072Z,97510.00
2023-04-26T18:20:56.358Z,97522.00
2023-04-26T18:23:25.969Z,97521.00
2023-04-26T18:25:54.161Z,97523.00
2023-04-26T18:28:22.642Z,97523.00
2023-04-26T18:30:50.885Z,97529.00
2023-04-26T18:33:19.270Z,97527.00
2023-04-26T18:35:50.083Z,97533.00
2023-04-26T18:38:18.635Z,97528.00
2023-04-26T18:40:49.738Z,97529.00
2023-04-26T18:43:18.089Z,97533.00
2023-04-26T18:45:46.576Z,97526.00
2023-04-26T18:48:17.284Z,97536.00
2023-04-26T18:50:51.133Z,97539.00
2023-04-26T18:53:19.916Z,97528.00
2023-04-26T18:55:49.781Z,97536.00
2023-04-26T18:58:17.996Z,97530.00
2023-04-26T19:00:46.318Z,97559.00
2023-04-26T19:03:14.719Z,97543.00
2023-04-26T19:05:43.502Z,97549.00
2023-04-26T19:08:11.776Z,97553.00
2023-04-26T19:10:40.124Z,97546.00
2023-04-26T19:13:09.688Z,97558.00
2023-04-26T19:15:37.974Z,97558.00
2023-04-26T19:18:06.562Z,97557.00
2023-04-26T19:20:34.918Z,97561.00
2023-04-26T19:23:03.161Z,97570.00
2023-04-26T19:25:31.333Z,97552.00
2023-04-26T19:27:59.464Z,97564.00
2023-04-26T19:30:29.062Z,97572.00
2023-04-26T19:32:58.002Z,97561.00
2023-04-26T19:35:26.355Z,97556.00
2023-04-26T19:37:54.635Z,97561.00
2023-04-26T19:40:22.903Z,97570.00
2023-04-26T19:42:51.306Z,97559.00
2023-04-26T19:45:20.552Z,97571.00
2023-04-26T19:47:50.244Z,97583.00
2023-04-26T19:50:18.830Z,97565.00
2023-04-26T19:52:47.334Z,97564.00
2023-04-26T19:55:15.709Z,97568.00
2023-04-26T19:57:44.179Z,97563.00
2023-04-26T20:00:13.792Z,97573.00
2023-04-26T20:02:42.295Z,97565.00
2023-04-26T20:05:12.522Z,97575.00
2023-04-26T20:07:40.765Z,97571.00
2023-04-26T20:10:10.725Z,97559.00
2023-04-26T20:12:41.855Z,97579.00
2023-04-26T20:15:12.114Z,97570.00
2023-04-26T20:17:40.553Z,97577.00
2023-04-26T20:20:12.681Z,97588.00
2023-04-26T20:22:41.548Z,97594.00
2023-04-26T20:25:10.673Z,97571.00
2023-04-26T20:27:39.123Z,97584.00
2023-04-26T20:30:09.491Z,97590.00
2023-04-26T20:32:37.807Z,97579.00
2023-04-26T20:35:07.119Z,97589.00
2023-04-26T20:37:36.800Z,97591.00
2023-04-26T20:40:06.029Z,97592.00
2023-04-26T20:42:34.473Z,97593.00
2023-04-26T20:45:02.821Z,97594.00
2023-04-26T20:47:31.231Z,97601.00
2023-04-26T20:49:59.758Z,97586.00
2023-04-26T20:52:28.257Z,97597.00
2023-04-26T20:54:58.129Z,97595.00
2023-04-26T20:57:26.739Z,97604.00
2023-04-26T20:59:54.927Z,97599.00
2023-04-26T21:02:23.245Z,97611.00
2023-04-26T21:04:51.869Z,97609.00
2023-04-26T21:07:20.042Z,97624.00
2023-04-26T21:09:49.168Z,97601.00
2023-04-26T21:12:18.687Z,97600.00
2023-04-26T21:14:47.902Z,97608.00
2023-04-26T21:17:16.369Z,97610.00
2023-04-26T21:19:44.706Z,97601.00
2023-04-26T21:22:12.939Z,97616.00
2023-04-26T21:24:41.675Z,97614.00
2023-04-26T21:27:09.868Z,97606.00
2023-04-26T21:29:39.454Z,97616.00
2023-04-26T21:32:07.746Z,97607.00
2023-04-26T21:34:36.459Z,97607.00
2023-04-26T21:37:04.691Z,97620.00
2023-04-26T21:39:32.811Z,97602.00
2023-04-26T21:42:03.354Z,97599.00
2023-04-26T21:44:31.521Z,97606.00
2023-04-26T21:47:01.220Z,97616.00
2023-04-26T21:49:29.512Z,97607.00
2023-04-26T21:51:57.616Z,97613.00
2023-04-26T21:54:25.951Z,97602.00
2023-04-26T21:56:54.088Z,97595.00
2023-04-26T21:59:22.312Z,97594.00
2023-04-26T22:01:50.953Z,97620.00
2023-04-26T22:04:20.689Z,97613.00
2023-04-26T22:06:48.998Z,97628.00
2023-04-26T22:09:17.197Z,97623.00
2023-04-26T22:11:45.558Z,97614.00
2023-04-26T22:14:13.799Z,97616.00
2023-04-26T22:16:42.608Z,97609.00
2023-04-26T22:19:11.048Z,97614.00
2023-04-26T22:21:40.804Z,97605.00
2023-04-26T22:24:09.642Z,97612.00
2023-04-26T22:26:37.866Z,97626.00
2023-04-26T22:29:07.088Z,97618.00
2023-04-26T22:31:35.387Z,97619.00
2023-04-26T22:34:03.685Z,97627.00
2023-04-26T22:36:32.517Z,97617.00
2023-04-26T22:39:02.000Z,97628.00
2023-04-26T22:41:30.525Z,97635.00
2023-04-26T22:43:58.675Z,97637.00
2023-04-26T22:46:26.998Z,97643.00
2023-04-26T22:48:55.365Z,97625.00
2023-04-26T22:51:23.773Z,97630.00
2023-04-26T22:53:52.048Z,97633.00
2023-04-26T22:56:22.278Z,97633.00
2023-04-26T22:58:50.518Z,97621.00
2023-04-26T23:01:18.645Z,97635.00
2023-04-26T23:03:46.930Z,97621.00
2023-04-26T23:06:15.266Z,97641.00
2023-04-26T23:08:43.443Z,97635.00
2023-04-26T23:11:11.576Z,97630.00
2023-04-26T23:13:41.259Z,97631.00
2023-04-26T23:16:10.086Z,97639.00
2023-04-26T23:18:38.175Z,97631.00
2023-04-26T23:21:06.677Z,97640.00
2023-04-26T23:23:34.773Z,97649.00
2023-04-26T23:26:08.336Z,97636.00
2023-04-26T23:28:36.818Z,97642.00
2023-04-26T23:31:06.467Z,97634.00
2023-04-26T23:33:34.576Z,97642.00
2023-04-26T23:36:02.977Z,97641.00
2023-04-26T23:38:31.204Z,97644.00
2023-04-26T23:40:59.334Z,97648.00
2023-04-26T23:43:27.515Z,97661.00
2023-04-26T23:45:55.789Z,97653.00
2023-04-26T23:48:25.281Z,97652.00
2023-04-26T23:50:53.425Z,97650.00
2023-04-26T23:53:21.593Z,97661.00
2023-04-26T23:55:49.958Z,97656.00
2023-04-26T23:58:18.104Z,97654.00
